sensor_id;sensor_type;location;lat;lon;timestamp;temperature;humidity
19025;DHT22;9645;51.448;6.260;2023-03-29T00:01:51;5.70;99.90
19025;DHT22;9645;51.448;6.260;2023-03-29T00:04:35;5.60;99.90
19025;DHT22;9645;51.448;6.260;2023-03-29T00:07:17;5.60;99.90
19025;DHT22;9645;51.448;6.260;2023-03-29T00:09:53;5.60;99.90
19025;DHT22;9645;51.448;6.260;2023-03-29T00:12:34;5.70;99.90
19025;DHT22;9645;51.448;6.260;2023-03-29T00:15:05;5.70;99.90
19025;DHT22;9645;51.448;6.260;2023-03-29T00:17:33;5.70;99.90
19025;DHT22;9645;51.448;6.260;2023-03-29T00:20:01;5.70;99.90
19025;DHT22;9645;51.448;6.260;2023-03-29T00:22:37;6.00;99.90
19025;DHT22;9645;51.448;6.260;2023-03-29T00:25:15;5.70;99.90
19025;DHT22;9645;51.448;6.260;2023-03-29T00:27:47;5.80;99.90
19025;DHT22;9645;51.448;6.260;2023-03-29T00:30:21;5.90;99.90
19025;DHT22;9645;51.448;6.260;2023-03-29T00:33:05;5.80;99.90
19025;DHT22;9645;51.448;6.260;2023-03-29T00:35:36;4.50;99.90
19025;DHT22;9645;51.448;6.260;2023-03-29T00:38:26;5.80;99.90
19025;DHT22;9645;51.448;6.260;2023-03-29T00:41:25;5.80;99.90
19025;DHT22;9645;51.448;6.260;2023-03-29T00:47:20;5.70;99.90
19025;DHT22;9645;51.448;6.260;2023-03-29T00:49:54;5.70;99.90
19025;DHT22;9645;51.448;6.260;2023-03-29T00:52:45;7.30;99.90
19025;DHT22;9645;51.448;6.260;2023-03-29T00:55:28;5.80;99.90
19025;DHT22;9645;51.448;6.260;2023-03-29T00:58:46;5.80;99.90
19025;DHT22;9645;51.448;6.260;2023-03-29T01:11:54;5.90;99.90
19025;DHT22;9645;51.448;6.260;2023-03-29T01:15:10;5.30;99.90
19025;DHT22;9645;51.448;6.260;2023-03-29T01:20:55;4.70;99.90
19025;DHT22;9645;51.448;6.260;2023-03-29T01:31:29;4.90;99.90
19025;DHT22;9645;51.448;6.260;2023-03-29T01:34:46;6.80;99.90
19025;DHT22;9645;51.448;6.260;2023-03-29T01:37:47;6.60;99.90
19025;DHT22;9645;51.448;6.260;2023-03-29T01:40:49;5.90;99.90
19025;DHT22;9645;51.448;6.260;2023-03-29T01:43:36;6.00;99.90
19025;DHT22;9645;51.448;6.260;2023-03-29T01:46:17;6.20;99.90
19025;DHT22;9645;51.448;6.260;2023-03-29T01:48:55;6.00;99.90
19025;DHT22;9645;51.448;6.260;2023-03-29T01:51:47;6.00;99.90
19025;DHT22;9645;51.448;6.260;2023-03-29T01:54:26;6.00;99.90
19025;DHT22;9645;51.448;6.260;2023-03-29T01:57:10;6.10;99.90
19025;DHT22;9645;51.448;6.260;2023-03-29T01:59:43;5.70;99.90
19025;DHT22;9645;51.448;6.260;2023-03-29T02:02:29;6.00;99.90
19025;DHT22;9645;51.448;6.260;2023-03-29T02:07:46;5.40;99.90
19025;DHT22;9645;51.448;6.260;2023-03-29T02:10:15;5.90;99.90
19025;DHT22;9645;51.448;6.260;2023-03-29T02:12:43;6.00;99.90
19025;DHT22;9645;51.448;6.260;2023-03-29T02:15:12;6.00;99.90
19025;DHT22;9645;51.448;6.260;2023-03-29T02:17:39;6.00;99.90
19025;DHT22;9645;51.448;6.260;2023-03-29T02:20:10;6.00;99.90
19025;DHT22;9645;51.448;6.260;2023-03-29T02:22:44;6.00;99.90
19025;DHT22;9645;51.448;6.260;2023-03-29T02:25:14;6.10;99.90
19025;DHT22;9645;51.448;6.260;2023-03-29T02:27:42;6.10;99.90
19025;DHT22;9645;51.448;6.260;2023-03-29T02:30:11;6.10;99.90
19025;DHT22;9645;51.448;6.260;2023-03-29T02:32:46;6.10;99.90
19025;DHT22;9645;51.448;6.260;2023-03-29T02:35:19;6.20;99.90
19025;DHT22;9645;51.448;6.260;2023-03-29T02:37:48;6.20;99.90
19025;DHT22;9645;51.448;6.260;2023-03-29T02:40:18;6.20;99.90
19025;DHT22;9645;51.448;6.260;2023-03-29T02:42:47;6.20;99.90
19025;DHT22;9645;51.448;6.260;2023-03-29T02:45:15;6.30;99.90
19025;DHT22;9645;51.448;6.260;2023-03-29T02:47:45;6.30;99.90
19025;DHT22;9645;51.448;6.260;2023-03-29T02:50:16;6.30;99.90
19025;DHT22;9645;51.448;6.260;2023-03-29T02:52:51;6.30;99.90
19025;DHT22;9645;51.448;6.260;2023-03-29T02:55:22;6.30;99.90
19025;DHT22;9645;51.448;6.260;2023-03-29T02:57:50;6.30;99.90
19025;DHT22;9645;51.448;6.260;2023-03-29T03:00:18;6.30;99.90
19025;DHT22;9645;51.448;6.260;2023-03-29T03:02:48;6.30;99.90
19025;DHT22;9645;51.448;6.260;2023-03-29T03:05:16;6.30;99.90
19025;DHT22;9645;51.448;6.260;2023-03-29T03:07:44;6.30;99.90
19025;DHT22;9645;51.448;6.260;2023-03-29T03:10:11;6.40;99.90
19025;DHT22;9645;51.448;6.260;2023-03-29T03:12:39;6.40;99.90
19025;DHT22;9645;51.448;6.260;2023-03-29T03:15:08;6.40;99.90
19025;DHT22;9645;51.448;6.260;2023-03-29T03:17:35;6.40;99.90
19025;DHT22;9645;51.448;6.260;2023-03-29T03:20:07;6.40;99.90
19025;DHT22;9645;51.448;6.260;2023-03-29T03:22:37;6.40;99.90
19025;DHT22;9645;51.448;6.260;2023-03-29T03:25:05;6.40;99.90
19025;DHT22;9645;51.448;6.260;2023-03-29T03:27:34;6.50;99.90
19025;DHT22;9645;51.448;6.260;2023-03-29T03:30:03;6.50;99.90
19025;DHT22;9645;51.448;6.260;2023-03-29T03:32:31;6.50;99.90
19025;DHT22;9645;51.448;6.260;2023-03-29T03:34:59;6.50;99.90
19025;DHT22;9645;51.448;6.260;2023-03-29T03:37:27;6.50;99.90
19025;DHT22;9645;51.448;6.260;2023-03-29T03:39:54;6.40;99.90
19025;DHT22;9645;51.448;6.260;2023-03-29T03:42:21;6.40;99.90
19025;DHT22;9645;51.448;6.260;2023-03-29T03:44:48;6.40;99.90
19025;DHT22;9645;51.448;6.260;2023-03-29T03:47:17;6.30;99.90
19025;DHT22;9645;51.448;6.260;2023-03-29T03:49:44;6.30;99.90
19025;DHT22;9645;51.448;6.260;2023-03-29T03:52:11;6.30;99.90
19025;DHT22;9645;51.448;6.260;2023-03-29T03:54:38;5.70;99.90
19025;DHT22;9645;51.448;6.260;2023-03-29T03:57:05;6.30;99.90
19025;DHT22;9645;51.448;6.260;2023-03-29T03:59:32;6.30;99.90
19025;DHT22;9645;51.448;6.260;2023-03-29T04:01:59;6.30;99.90
19025;DHT22;9645;51.448;6.260;2023-03-29T04:04:28;6.40;99.90
19025;DHT22;9645;51.448;6.260;2023-03-29T04:06:55;6.30;99.90
19025;DHT22;9645;51.448;6.260;2023-03-29T04:09:27;6.30;99.90
19025;DHT22;9645;51.448;6.260;2023-03-29T04:11:55;6.30;99.90
19025;DHT22;9645;51.448;6.260;2023-03-29T04:14:23;6.30;99.90
19025;DHT22;9645;51.448;6.260;2023-03-29T04:16:50;6.30;99.90
19025;DHT22;9645;51.448;6.260;2023-03-29T04:19:18;6.30;99.90
19025;DHT22;9645;51.448;6.260;2023-03-29T04:21:47;6.30;99.90
19025;DHT22;9645;51.448;6.260;2023-03-29T04:24:14;6.20;99.90
19025;DHT22;9645;51.448;6.260;2023-03-29T04:26:42;6.30;99.90
19025;DHT22;9645;51.448;6.260;2023-03-29T04:29:10;6.30;99.90
19025;DHT22;9645;51.448;6.260;2023-03-29T04:31:37;6.40;99.90
19025;DHT22;9645;51.448;6.260;2023-03-29T04:34:04;6.40;99.90
19025;DHT22;9645;51.448;6.260;2023-03-29T04:36:31;6.40;99.90
19025;DHT22;9645;51.448;6.260;2023-03-29T04:39:00;6.40;99.90
19025;DHT22;9645;51.448;6.260;2023-03-29T04:41:29;6.30;99.90
19025;DHT22;9645;51.448;6.260;2023-03-29T04:43:57;6.40;99.90
19025;DHT22;9645;51.448;6.260;2023-03-29T04:46:24;6.40;99.90
19025;DHT22;9645;51.448;6.260;2023-03-29T04:48:51;6.40;99.90
19025;DHT22;9645;51.448;6.260;2023-03-29T04:51:18;6.40;99.90
19025;DHT22;9645;51.448;6.260;2023-03-29T04:53:47;6.40;99.90
19025;DHT22;9645;51.448;6.260;2023-03-29T04:56:16;6.50;99.90
19025;DHT22;9645;51.448;6.260;2023-03-29T04:58:43;6.50;99.90
19025;DHT22;9645;51.448;6.260;2023-03-29T05:01:10;6.50;99.90
19025;DHT22;9645;51.448;6.260;2023-03-29T05:03:37;6.50;99.90
19025;DHT22;9645;51.448;6.260;2023-03-29T05:06:05;6.50;99.90
19025;DHT22;9645;51.448;6.260;2023-03-29T05:08:33;6.50;99.90
19025;DHT22;9645;51.448;6.260;2023-03-29T05:11:03;6.50;99.90
19025;DHT22;9645;51.448;6.260;2023-03-29T05:13:32;6.50;99.90
19025;DHT22;9645;51.448;6.260;2023-03-29T05:15:59;6.60;99.90
19025;DHT22;9645;51.448;6.260;2023-03-29T05:18:27;6.60;99.90
19025;DHT22;9645;51.448;6.260;2023-03-29T05:20:54;6.40;99.90
19025;DHT22;9645;51.448;6.260;2023-03-29T05:23:21;6.60;99.90
19025;DHT22;9645;51.448;6.260;2023-03-29T05:25:48;6.60;99.90
19025;DHT22;9645;51.448;6.260;2023-03-29T05:28:15;6.60;99.90
19025;DHT22;9645;51.448;6.260;2023-03-29T05:30:44;6.60;99.90
19025;DHT22;9645;51.448;6.260;2023-03-29T05:33:11;5.80;99.90
19025;DHT22;9645;51.448;6.260;2023-03-29T05:35:38;6.70;99.90
19025;DHT22;9645;51.448;6.260;2023-03-29T05:38:05;6.70;99.90
19025;DHT22;9645;51.448;6.260;2023-03-29T05:40:32;6.60;99.90
19025;DHT22;9645;51.448;6.260;2023-03-29T05:43:00;6.60;99.90
19025;DHT22;9645;51.448;6.260;2023-03-29T05:45:27;6.60;99.90
19025;DHT22;9645;51.448;6.260;2023-03-29T05:47:56;6.70;99.90
19025;DHT22;9645;51.448;6.260;2023-03-29T05:50:23;6.70;99.90
19025;DHT22;9645;51.448;6.260;2023-03-29T05:52:50;6.60;99.90
19025;DHT22;9645;51.448;6.260;2023-03-29T05:55:17;6.60;99.90
19025;DHT22;9645;51.448;6.260;2023-03-29T05:57:44;6.70;99.90
19025;DHT22;9645;51.448;6.260;2023-03-29T06:00:12;6.80;99.90
19025;DHT22;9645;51.448;6.260;2023-03-29T06:02:48;6.80;99.90
19025;DHT22;9645;51.448;6.260;2023-03-29T06:05:18;6.90;99.90
19025;DHT22;9645;51.448;6.260;2023-03-29T06:07:45;7.00;99.90
19025;DHT22;9645;51.448;6.260;2023-03-29T06:10:13;7.00;99.90
19025;DHT22;9645;51.448;6.260;2023-03-29T06:12:42;7.00;99.90
19025;DHT22;9645;51.448;6.260;2023-03-29T06:15:10;7.00;99.90
19025;DHT22;9645;51.448;6.260;2023-03-29T06:17:38;7.00;99.90
19025;DHT22;9645;51.448;6.260;2023-03-29T06:20:06;7.00;99.90
19025;DHT22;9645;51.448;6.260;2023-03-29T06:22:37;7.00;99.90
19025;DHT22;9645;51.448;6.260;2023-03-29T06:25:05;7.10;99.90
19025;DHT22;9645;51.448;6.260;2023-03-29T06:27:34;7.20;99.90
19025;DHT22;9645;51.448;6.260;2023-03-29T06:30:02;7.30;99.90
19025;DHT22;9645;51.448;6.260;2023-03-29T06:32:32;7.20;99.90
19025;DHT22;9645;51.448;6.260;2023-03-29T06:35:00;7.30;99.90
19025;DHT22;9645;51.448;6.260;2023-03-29T06:37:29;7.40;99.90
19025;DHT22;9645;51.448;6.260;2023-03-29T06:40:00;7.40;99.90
19025;DHT22;9645;51.448;6.260;2023-03-29T06:42:31;7.40;99.90
19025;DHT22;9645;51.448;6.260;2023-03-29T06:44:59;7.50;99.90
19025;DHT22;9645;51.448;6.260;2023-03-29T06:47:26;7.50;99.90
19025;DHT22;9645;51.448;6.260;2023-03-29T06:49:56;7.60;99.90
19025;DHT22;9645;51.448;6.260;2023-03-29T06:52:24;7.60;99.90
19025;DHT22;9645;51.448;6.260;2023-03-29T06:54:54;7.60;99.90
19025;DHT22;9645;51.448;6.260;2023-03-29T06:57:23;7.70;99.90
19025;DHT22;9645;51.448;6.260;2023-03-29T06:59:52;7.70;99.90
19025;DHT22;9645;51.448;6.260;2023-03-29T07:02:20;7.80;99.90
19025;DHT22;9645;51.448;6.260;2023-03-29T07:04:48;7.80;99.90
19025;DHT22;9645;51.448;6.260;2023-03-29T07:07:16;7.90;99.90
19025;DHT22;9645;51.448;6.260;2023-03-29T07:09:46;7.90;99.90
19025;DHT22;9645;51.448;6.260;2023-03-29T07:12:19;8.00;99.90
19025;DHT22;9645;51.448;6.260;2023-03-29T07:14:49;8.00;99.90
19025;DHT22;9645;51.448;6.260;2023-03-29T07:17:17;8.10;99.90
19025;DHT22;9645;51.448;6.260;2023-03-29T07:19:45;8.10;99.90
19025;DHT22;9645;51.448;6.260;2023-03-29T07:22:13;8.10;99.90
19025;DHT22;9645;51.448;6.260;2023-03-29T07:24:41;8.20;99.90
19025;DHT22;9645;51.448;6.260;2023-03-29T07:27:08;8.20;99.90
19025;DHT22;9645;51.448;6.260;2023-03-29T07:29:35;8.30;99.90
19025;DHT22;9645;51.448;6.260;2023-03-29T07:32:04;8.50;99.90
19025;DHT22;9645;51.448;6.260;2023-03-29T07:34:31;8.60;99.90
19025;DHT22;9645;51.448;6.260;2023-03-29T07:36:58;8.60;99.90
19025;DHT22;9645;51.448;6.260;2023-03-29T07:39:25;8.70;99.90
19025;DHT22;9645;51.448;6.260;2023-03-29T07:41:55;8.80;99.90
19025;DHT22;9645;51.448;6.260;2023-03-29T07:44:23;8.90;99.90
19025;DHT22;9645;51.448;6.260;2023-03-29T07:46:51;8.90;99.90
19025;DHT22;9645;51.448;6.260;2023-03-29T07:49:20;9.00;99.90
19025;DHT22;9645;51.448;6.260;2023-03-29T07:51:47;9.00;99.90
19025;DHT22;9645;51.448;6.260;2023-03-29T07:54:14;9.00;99.90
19025;DHT22;9645;51.448;6.260;2023-03-29T07:56:41;9.10;99.90
19025;DHT22;9645;51.448;6.260;2023-03-29T07:59:08;9.00;99.90
19025;DHT22;9645;51.448;6.260;2023-03-29T08:01:36;9.00;99.90
19025;DHT22;9645;51.448;6.260;2023-03-29T08:04:05;9.00;99.90
19025;DHT22;9645;51.448;6.260;2023-03-29T08:06:33;8.90;99.90
19025;DHT22;9645;51.448;6.260;2023-03-29T08:09:01;8.90;99.90
19025;DHT22;9645;51.448;6.260;2023-03-29T08:11:28;8.90;99.90
19025;DHT22;9645;51.448;6.260;2023-03-29T08:13:55;8.90;99.90
19025;DHT22;9645;51.448;6.260;2023-03-29T08:16:24;8.90;99.90
19025;DHT22;9645;51.448;6.260;2023-03-29T08:18:52;9.00;99.90
19025;DHT22;9645;51.448;6.260;2023-03-29T08:21:19;9.00;99.90
19025;DHT22;9645;51.448;6.260;2023-03-29T08:23:47;9.00;99.90
19025;DHT22;9645;51.448;6.260;2023-03-29T08:26:14;9.10;99.90
19025;DHT22;9645;51.448;6.260;2023-03-29T08:28:41;9.10;99.90
19025;DHT22;9645;51.448;6.260;2023-03-29T08:31:10;9.20;99.90
19025;DHT22;9645;51.448;6.260;2023-03-29T08:33:37;9.30;99.90
19025;DHT22;9645;51.448;6.260;2023-03-29T08:36:05;9.30;99.90
19025;DHT22;9645;51.448;6.260;2023-03-29T08:38:32;9.40;99.90
19025;DHT22;9645;51.448;6.260;2023-03-29T08:41:16;9.40;99.90
19025;DHT22;9645;51.448;6.260;2023-03-29T08:44:00;9.50;99.90
19025;DHT22;9645;51.448;6.260;2023-03-29T08:46:36;9.70;99.90
19025;DHT22;9645;51.448;6.260;2023-03-29T08:49:07;9.90;99.90
19025;DHT22;9645;51.448;6.260;2023-03-29T08:51:38;10.20;99.90
19025;DHT22;9645;51.448;6.260;2023-03-29T08:54:10;11.20;99.90
19025;DHT22;9645;51.448;6.260;2023-03-29T08:56:41;11.40;99.90
19025;DHT22;9645;51.448;6.260;2023-03-29T08:59:16;10.80;99.90
19025;DHT22;9645;51.448;6.260;2023-03-29T09:01:44;11.00;99.90
19025;DHT22;9645;51.448;6.260;2023-03-29T09:04:16;11.10;99.90
19025;DHT22;9645;51.448;6.260;2023-03-29T09:06:46;11.30;99.90
19025;DHT22;9645;51.448;6.260;2023-03-29T09:09:16;11.40;99.90
19025;DHT22;9645;51.448;6.260;2023-03-29T09:12:08;11.40;99.90
19025;DHT22;9645;51.448;6.260;2023-03-29T09:14:47;11.40;99.90
19025;DHT22;9645;51.448;6.260;2023-03-29T09:17:26;11.30;99.90
19025;DHT22;9645;51.448;6.260;2023-03-29T09:20:03;11.30;99.90
19025;DHT22;9645;51.448;6.260;2023-03-29T09:22:36;11.40;99.90
19025;DHT22;9645;51.448;6.260;2023-03-29T09:25:10;11.50;99.90
19025;DHT22;9645;51.448;6.260;2023-03-29T09:27:47;11.60;99.90
19025;DHT22;9645;51.448;6.260;2023-03-29T09:30:16;11.50;99.90
19025;DHT22;9645;51.448;6.260;2023-03-29T09:32:52;11.50;99.90
19025;DHT22;9645;51.448;6.260;2023-03-29T09:35:22;11.50;99.90
19025;DHT22;9645;51.448;6.260;2023-03-29T09:37:50;11.50;99.90
19025;DHT22;9645;51.448;6.260;2023-03-29T09:40:21;11.60;99.90
19025;DHT22;9645;51.448;6.260;2023-03-29T09:42:52;12.00;99.90
19025;DHT22;9645;51.448;6.260;2023-03-29T09:45:20;12.60;99.90
19025;DHT22;9645;51.448;6.260;2023-03-29T09:47:51;13.10;99.90
19025;DHT22;9645;51.448;6.260;2023-03-29T09:50:23;14.10;99.90
19025;DHT22;9645;51.448;6.260;2023-03-29T09:52:53;14.30;1.00
19025;DHT22;9645;51.448;6.260;2023-03-29T09:55:24;14.30;1.00
19025;DHT22;9645;51.448;6.260;2023-03-29T09:57:54;14.60;1.00
19025;DHT22;9645;51.448;6.260;2023-03-29T10:00:24;14.70;1.00
19025;DHT22;9645;51.448;6.260;2023-03-29T10:02:51;14.40;1.00
19025;DHT22;9645;51.448;6.260;2023-03-29T10:05:19;14.00;1.00
19025;DHT22;9645;51.448;6.260;2023-03-29T10:07:49;13.50;1.00
19025;DHT22;9645;51.448;6.260;2023-03-29T10:10:22;13.20;1.00
19025;DHT22;9645;51.448;6.260;2023-03-29T10:12:55;12.90;99.90
19025;DHT22;9645;51.448;6.260;2023-03-29T10:15:22;12.80;1.00
19025;DHT22;9645;51.448;6.260;2023-03-29T10:17:58;12.70;99.90
19025;DHT22;9645;51.448;6.260;2023-03-29T10:20:25;12.80;99.90
19025;DHT22;9645;51.448;6.260;2023-03-29T10:22:55;12.90;99.90
19025;DHT22;9645;51.448;6.260;2023-03-29T10:25:26;13.00;99.90
19025;DHT22;9645;51.448;6.260;2023-03-29T10:27:57;13.10;99.90
19025;DHT22;9645;51.448;6.260;2023-03-29T10:30:28;13.20;99.90
19025;DHT22;9645;51.448;6.260;2023-03-29T10:32:58;13.50;99.90
19025;DHT22;9645;51.448;6.260;2023-03-29T10:35:28;13.80;99.90
19025;DHT22;9645;51.448;6.260;2023-03-29T10:37:57;13.80;99.90
19025;DHT22;9645;51.448;6.260;2023-03-29T10:40:26;13.50;99.90
19025;DHT22;9645;51.448;6.260;2023-03-29T10:42:59;13.50;99.90
19025;DHT22;9645;51.448;6.260;2023-03-29T10:45:28;13.60;99.90
19025;DHT22;9645;51.448;6.260;2023-03-29T10:47:56;13.80;99.90
19025;DHT22;9645;51.448;6.260;2023-03-29T10:50:24;14.30;99.90
19025;DHT22;9645;51.448;6.260;2023-03-29T10:52:51;14.70;99.90
19025;DHT22;9645;51.448;6.260;2023-03-29T10:55:20;14.90;99.90
19025;DHT22;9645;51.448;6.260;2023-03-29T10:57:55;15.00;99.90
19025;DHT22;9645;51.448;6.260;2023-03-29T11:00:33;14.70;99.90
19025;DHT22;9645;51.448;6.260;2023-03-29T11:03:27;15.40;99.90
19025;DHT22;9645;51.448;6.260;2023-03-29T11:05:58;14.40;99.90
19025;DHT22;9645;51.448;6.260;2023-03-29T11:08:41;14.50;99.90
19025;DHT22;9645;51.448;6.260;2023-03-29T11:11:46;14.50;99.90
19025;DHT22;9645;51.448;6.260;2023-03-29T11:14:22;14.30;99.90
19025;DHT22;9645;51.448;6.260;2023-03-29T11:17:01;14.20;99.90
19025;DHT22;9645;51.448;6.260;2023-03-29T11:19:46;13.90;99.90
19025;DHT22;9645;51.448;6.260;2023-03-29T11:22:18;14.00;99.90
19025;DHT22;9645;51.448;6.260;2023-03-29T11:25:01;14.30;99.90
19025;DHT22;9645;51.448;6.260;2023-03-29T11:27:39;15.00;99.90
19025;DHT22;9645;51.448;6.260;2023-03-29T11:30:12;15.70;99.90
19025;DHT22;9645;51.448;6.260;2023-03-29T11:32:49;15.70;99.90
19025;DHT22;9645;51.448;6.260;2023-03-29T11:35:31;15.40;99.90
19025;DHT22;9645;51.448;6.260;2023-03-29T11:38:07;15.10;99.90
19025;DHT22;9645;51.448;6.260;2023-03-29T11:40:46;14.80;99.90
19025;DHT22;9645;51.448;6.260;2023-03-29T11:43:21;14.50;99.90
19025;DHT22;9645;51.448;6.260;2023-03-29T11:45:54;14.70;99.90
19025;DHT22;9645;51.448;6.260;2023-03-29T11:48:26;14.90;99.90
19025;DHT22;9645;51.448;6.260;2023-03-29T11:50:58;15.90;99.90
19025;DHT22;9645;51.448;6.260;2023-03-29T11:53:30;16.80;99.90
19025;DHT22;9645;51.448;6.260;2023-03-29T11:56:05;17.50;99.90
19025;DHT22;9645;51.448;6.260;2023-03-29T11:58:38;17.90;99.90
19025;DHT22;9645;51.448;6.260;2023-03-29T12:01:09;17.80;99.90
19025;DHT22;9645;51.448;6.260;2023-03-29T12:03:43;17.40;99.90
19025;DHT22;9645;51.448;6.260;2023-03-29T12:06:16;16.80;99.90
19025;DHT22;9645;51.448;6.260;2023-03-29T12:08:50;17.30;99.90
19025;DHT22;9645;51.448;6.260;2023-03-29T12:11:25;17.70;99.90
19025;DHT22;9645;51.448;6.260;2023-03-29T12:13:57;18.00;99.90
19025;DHT22;9645;51.448;6.260;2023-03-29T12:16:28;18.20;99.90
19025;DHT22;9645;51.448;6.260;2023-03-29T12:19:03;17.90;99.90
19025;DHT22;9645;51.448;6.260;2023-03-29T12:21:31;17.30;99.90
19025;DHT22;9645;51.448;6.260;2023-03-29T12:23:59;17.10;99.90
19025;DHT22;9645;51.448;6.260;2023-03-29T12:26:50;16.90;99.90
19025;DHT22;9645;51.448;6.260;2023-03-29T12:29:42;16.60;99.90
19025;DHT22;9645;51.448;6.260;2023-03-29T12:32:36;17.00;99.90
19025;DHT22;9645;51.448;6.260;2023-03-29T12:35:21;17.20;99.90
19025;DHT22;9645;51.448;6.260;2023-03-29T12:37:59;17.20;99.90
19025;DHT22;9645;51.448;6.260;2023-03-29T12:40:39;17.00;99.90
19025;DHT22;9645;51.448;6.260;2023-03-29T12:43:12;16.70;99.90
19025;DHT22;9645;51.448;6.260;2023-03-29T12:45:42;16.70;99.90
19025;DHT22;9645;51.448;6.260;2023-03-29T12:48:15;16.60;99.90
19025;DHT22;9645;51.448;6.260;2023-03-29T12:50:47;16.60;99.90
19025;DHT22;9645;51.448;6.260;2023-03-29T12:53:18;16.50;99.90
19025;DHT22;9645;51.448;6.260;2023-03-29T12:55:52;16.40;1.00
19025;DHT22;9645;51.448;6.260;2023-03-29T12:58:25;16.40;1.00
19025;DHT22;9645;51.448;6.260;2023-03-29T13:01:03;16.50;1.00
19025;DHT22;9645;51.448;6.260;2023-03-29T13:03:39;16.40;1.00
19025;DHT22;9645;51.448;6.260;2023-03-29T13:06:10;16.20;1.00
19025;DHT22;9645;51.448;6.260;2023-03-29T13:08:39;16.10;1.00
19025;DHT22;9645;51.448;6.260;2023-03-29T13:11:11;16.10;1.00
19025;DHT22;9645;51.448;6.260;2023-03-29T13:13:40;16.50;1.00
19025;DHT22;9645;51.448;6.260;2023-03-29T13:16:13;16.80;99.90
19025;DHT22;9645;51.448;6.260;2023-03-29T13:18:51;16.80;99.90
19025;DHT22;9645;51.448;6.260;2023-03-29T13:21:31;16.60;99.90
19025;DHT22;9645;51.448;6.260;2023-03-29T13:24:11;16.60;83.00
19025;DHT22;9645;51.448;6.260;2023-03-29T13:26:54;16.50;1.00
19025;DHT22;9645;51.448;6.260;2023-03-29T13:29:45;16.40;99.90
19025;DHT22;9645;51.448;6.260;2023-03-29T13:32:29;16.30;1.00
19025;DHT22;9645;51.448;6.260;2023-03-29T13:35:02;16.50;1.00
19025;DHT22;9645;51.448;6.260;2023-03-29T13:37:40;16.50;1.00
19025;DHT22;9645;51.448;6.260;2023-03-29T13:40:42;16.50;99.90
19025;DHT22;9645;51.448;6.260;2023-03-29T13:43:18;16.50;1.00
19025;DHT22;9645;51.448;6.260;2023-03-29T13:46:03;16.50;1.00
19025;DHT22;9645;51.448;6.260;2023-03-29T13:48:42;16.60;1.00
19025;DHT22;9645;51.448;6.260;2023-03-29T13:51:22;16.70;1.00
19025;DHT22;9645;51.448;6.260;2023-03-29T13:53:56;17.00;1.00
19025;DHT22;9645;51.448;6.260;2023-03-29T13:56:28;17.10;99.90
19025;DHT22;9645;51.448;6.260;2023-03-29T13:59:01;17.00;99.90
19025;DHT22;9645;51.448;6.260;2023-03-29T14:01:36;16.90;1.00
19025;DHT22;9645;51.448;6.260;2023-03-29T14:04:06;16.80;1.00
19025;DHT22;9645;51.448;6.260;2023-03-29T14:06:39;16.80;1.00
19025;DHT22;9645;51.448;6.260;2023-03-29T14:09:12;16.70;1.00
19025;DHT22;9645;51.448;6.260;2023-03-29T14:11:43;16.60;1.00
19025;DHT22;9645;51.448;6.260;2023-03-29T14:14:12;16.50;1.00
19025;DHT22;9645;51.448;6.260;2023-03-29T14:16:40;16.50;1.00
19025;DHT22;9645;51.448;6.260;2023-03-29T14:19:13;16.50;1.00
19025;DHT22;9645;51.448;6.260;2023-03-29T14:21:42;16.60;1.00
19025;DHT22;9645;51.448;6.260;2023-03-29T14:24:14;16.60;1.00
19025;DHT22;9645;51.448;6.260;2023-03-29T14:26:45;16.80;1.00
19025;DHT22;9645;51.448;6.260;2023-03-29T14:29:12;16.80;1.00
19025;DHT22;9645;51.448;6.260;2023-03-29T14:31:41;16.70;8.70
19025;DHT22;9645;51.448;6.260;2023-03-29T14:34:12;16.70;1.00
19025;DHT22;9645;51.448;6.260;2023-03-29T14:36:40;16.60;83.70
19025;DHT22;9645;51.448;6.260;2023-03-29T14:39:16;16.60;99.90
19025;DHT22;9645;51.448;6.260;2023-03-29T14:41:49;16.60;99.90
19025;DHT22;9645;51.448;6.260;2023-03-29T14:44:17;16.50;99.90
19025;DHT22;9645;51.448;6.260;2023-03-29T14:46:46;16.60;1.00
19025;DHT22;9645;51.448;6.260;2023-03-29T14:49:15;16.60;1.00
19025;DHT22;9645;51.448;6.260;2023-03-29T14:51:42;16.70;99.90
19025;DHT22;9645;51.448;6.260;2023-03-29T14:54:17;16.60;99.90
19025;DHT22;9645;51.448;6.260;2023-03-29T14:56:45;16.60;1.00
19025;DHT22;9645;51.448;6.260;2023-03-29T14:59:24;16.60;1.00
19025;DHT22;9645;51.448;6.260;2023-03-29T15:01:52;16.60;99.90
19025;DHT22;9645;51.448;6.260;2023-03-29T15:04:19;16.60;99.90
19025;DHT22;9645;51.448;6.260;2023-03-29T15:06:46;16.60;99.90
19025;DHT22;9645;51.448;6.260;2023-03-29T15:09:21;16.50;99.90
19025;DHT22;9645;51.448;6.260;2023-03-29T15:11:51;16.40;1.00
19025;DHT22;9645;51.448;6.260;2023-03-29T15:14:19;16.40;99.90
19025;DHT22;9645;51.448;6.260;2023-03-29T15:16:49;16.40;34.40
19025;DHT22;9645;51.448;6.260;2023-03-29T15:19:20;16.30;1.00
19025;DHT22;9645;51.448;6.260;2023-03-29T15:21:49;16.20;99.90
19025;DHT22;9645;51.448;6.260;2023-03-29T15:24:20;16.10;1.00
19025;DHT22;9645;51.448;6.260;2023-03-29T15:26:58;16.10;1.00
19025;DHT22;9645;51.448;6.260;2023-03-29T15:29:33;16.00;99.90
19025;DHT22;9645;51.448;6.260;2023-03-29T15:32:01;15.90;99.90
19025;DHT22;9645;51.448;6.260;2023-03-29T15:34:30;15.90;99.90
19025;DHT22;9645;51.448;6.260;2023-03-29T15:36:58;15.90;99.90
19025;DHT22;9645;51.448;6.260;2023-03-29T15:39:27;16.00;99.90
19025;DHT22;9645;51.448;6.260;2023-03-29T15:41:56;16.10;99.90
19025;DHT22;9645;51.448;6.260;2023-03-29T15:44:26;16.10;99.90
19025;DHT22;9645;51.448;6.260;2023-03-29T15:46:54;16.20;99.90
19025;DHT22;9645;51.448;6.260;2023-03-29T15:49:24;16.20;99.90
19025;DHT22;9645;51.448;6.260;2023-03-29T15:51:52;16.40;99.90
19025;DHT22;9645;51.448;6.260;2023-03-29T15:54:19;16.50;99.90
19025;DHT22;9645;51.448;6.260;2023-03-29T15:56:53;16.50;99.90
19025;DHT22;9645;51.448;6.260;2023-03-29T15:59:21;16.60;99.90
19025;DHT22;9645;51.448;6.260;2023-03-29T16:01:48;16.60;99.90
19025;DHT22;9645;51.448;6.260;2023-03-29T16:04:17;16.70;99.90
19025;DHT22;9645;51.448;6.260;2023-03-29T16:06:46;16.60;99.90
19025;DHT22;9645;51.448;6.260;2023-03-29T16:09:14;16.60;99.90
19025;DHT22;9645;51.448;6.260;2023-03-29T16:11:43;16.60;99.90
19025;DHT22;9645;51.448;6.260;2023-03-29T16:14:21;16.50;99.90
19025;DHT22;9645;51.448;6.260;2023-03-29T16:16:48;16.40;99.90
19025;DHT22;9645;51.448;6.260;2023-03-29T16:19:15;16.40;99.90
19025;DHT22;9645;51.448;6.260;2023-03-29T16:21:43;16.30;99.90
19025;DHT22;9645;51.448;6.260;2023-03-29T16:24:13;16.20;99.90
19025;DHT22;9645;51.448;6.260;2023-03-29T16:26:40;16.20;99.90
19025;DHT22;9645;51.448;6.260;2023-03-29T16:29:08;16.20;99.90
19025;DHT22;9645;51.448;6.260;2023-03-29T16:31:37;16.10;99.90
19025;DHT22;9645;51.448;6.260;2023-03-29T16:34:04;16.20;99.90
19025;DHT22;9645;51.448;6.260;2023-03-29T16:36:32;16.20;99.90
19025;DHT22;9645;51.448;6.260;2023-03-29T16:38:59;16.20;99.90
19025;DHT22;9645;51.448;6.260;2023-03-29T16:41:26;16.10;99.90
19025;DHT22;9645;51.448;6.260;2023-03-29T16:43:53;16.10;99.90
19025;DHT22;9645;51.448;6.260;2023-03-29T16:46:20;16.00;99.90
19025;DHT22;9645;51.448;6.260;2023-03-29T16:48:49;16.00;99.90
19025;DHT22;9645;51.448;6.260;2023-03-29T16:51:18;16.00;99.90
19025;DHT22;9645;51.448;6.260;2023-03-29T16:53:45;15.90;99.90